createdAt,value
2019-05-29T00:01:21.696Z,97.60
2019-05-29T00:03:51.091Z,97.80
2019-05-29T00:06:21.514Z,97.80
2019-05-29T00:08:51.843Z,97.70
2019-05-29T00:11:22.142Z,97.80
2019-05-29T00:13:54.078Z,98.00
2019-05-29T00:16:25.504Z,97.80
2019-05-29T00:18:58.312Z,98.00
2019-05-29T00:21:27.775Z,97.60
2019-05-29T00:23:58.334Z,97.60
2019-05-29T00:26:28.715Z,98.20
2019-05-29T00:28:59.149Z,97.70
2019-05-29T00:31:29.460Z,98.00
2019-05-29T00:33:59.805Z,98.00
2019-05-29T00:36:30.199Z,98.10
2019-05-29T00:39:00.608Z,98.30
2019-05-29T00:41:31.679Z,98.30
2019-05-29T00:44:03.087Z,98.70
2019-05-29T00:46:33.403Z,98.70
2019-05-29T00:49:03.754Z,99.10
2019-05-29T00:51:34.068Z,98.90
2019-05-29T00:54:04.410Z,98.80
2019-05-29T00:56:34.714Z,98.70
2019-05-29T00:59:05.057Z,98.50
2019-05-29T01:01:35.360Z,98.50
2019-05-29T01:04:05.704Z,98.50
2019-05-29T01:06:36.011Z,98.30
2019-05-29T01:09:08.268Z,98.10
2019-05-29T01:11:38.570Z,98.00
2019-05-29T01:14:08.932Z,97.90
2019-05-29T01:16:39.291Z,98.00
2019-05-29T01:19:25.087Z,97.90
2019-05-29T01:21:56.287Z,97.90
2019-05-29T01:24:26.878Z,97.90
2019-05-29T01:26:57.194Z,98.00
2019-05-29T01:29:27.546Z,98.00
2019-05-29T01:31:57.915Z,97.90
2019-05-29T01:34:28.239Z,97.90
2019-05-29T01:36:58.576Z,98.10
2019-05-29T01:39:28.948Z,98.00
2019-05-29T01:41:59.291Z,98.20
2019-05-29T01:44:29.618Z,98.10
2019-05-29T01:46:59.944Z,98.30
2019-05-29T01:49:30.263Z,98.30
2019-05-29T01:52:00.576Z,98.30
2019-05-29T01:54:31.009Z,98.30
2019-05-29T01:57:02.480Z,98.20
2019-05-29T01:59:32.902Z,98.50
2019-05-29T02:02:03.711Z,98.40
2019-05-29T02:04:34.040Z,98.60
2019-05-29T02:07:04.338Z,98.40
2019-05-29T02:09:35.574Z,98.50
2019-05-29T02:12:06.104Z,98.50
2019-05-29T02:14:36.447Z,98.40
2019-05-29T02:17:06.784Z,98.50
2019-05-29T02:19:37.130Z,98.60
2019-05-29T02:22:07.523Z,98.30
2019-05-29T02:24:37.863Z,98.20
2019-05-29T02:27:08.207Z,98.30
2019-05-29T02:29:38.546Z,98.30
2019-05-29T02:32:08.857Z,98.20
2019-05-29T02:34:39.176Z,98.40
2019-05-29T02:37:09.485Z,98.30
2019-05-29T02:39:40.378Z,98.50
2019-05-29T02:42:10.681Z,98.50
2019-05-29T02:44:41.019Z,98.80
2019-05-29T02:47:11.520Z,98.70
2019-05-29T02:49:45.373Z,98.60
2019-05-29T02:52:15.741Z,98.80
2019-05-29T02:54:46.081Z,98.80
2019-05-29T02:57:16.400Z,98.50
2019-05-29T02:59:46.751Z,98.50
2019-05-29T03:02:17.054Z,98.50
2019-05-29T03:04:47.412Z,98.60
2019-05-29T03:07:17.698Z,98.40
2019-05-29T03:09:48.119Z,98.50
2019-05-29T03:12:18.422Z,98.80
2019-05-29T03:14:48.792Z,99.00
2019-05-29T03:17:19.097Z,99.00
2019-05-29T03:19:49.487Z,99.20
2019-05-29T03:22:19.791Z,99.50
2019-05-29T03:24:50.137Z,99.30
2019-05-29T03:27:20.441Z,99.50
2019-05-29T03:29:50.768Z,99.60
2019-05-29T03:32:21.877Z,99.60
2019-05-29T03:34:52.247Z,99.40
2019-05-29T03:37:22.567Z,99.40
2019-05-29T03:39:52.974Z,99.60
2019-05-29T03:42:23.276Z,99.60
2019-05-29T03:44:53.637Z,99.70
2019-05-29T03:47:24.001Z,99.80
2019-05-29T03:49:54.396Z,99.80
2019-05-29T03:52:26.345Z,99.90
2019-05-29T03:54:56.650Z,99.80
2019-05-29T03:57:27.705Z,99.80
2019-05-29T03:59:58.666Z,99.80
2019-05-29T04:02:28.964Z,99.90
2019-05-29T04:04:59.322Z,99.90
2019-05-29T04:07:31.225Z,99.50
2019-05-29T04:10:01.629Z,99.40
2019-05-29T04:12:33.383Z,99.20
2019-05-29T04:15:04.192Z,99.10
2019-05-29T04:17:37.724Z,99.10
2019-05-29T04:20:08.387Z,98.80
2019-05-29T04:22:44.424Z,98.40
2019-05-29T04:25:15.143Z,98.00
2019-05-29T04:27:48.489Z,97.80
2019-05-29T04:30:18.876Z,97.70
2019-05-29T04:32:49.195Z,97.30
2019-05-29T04:35:19.537Z,97.40
2019-05-29T04:37:49.858Z,97.20
2019-05-29T04:40:21.025Z,97.20
2019-05-29T04:42:51.372Z,97.20
2019-05-29T04:45:22.785Z,97.30
2019-05-29T04:47:53.105Z,97.20
2019-05-29T04:50:24.148Z,97.30
2019-05-29T04:52:54.468Z,97.20
2019-05-29T04:55:24.805Z,97.00
2019-05-29T04:57:55.219Z,96.90
2019-05-29T05:00:26.636Z,96.70
2019-05-29T05:02:56.952Z,96.40
2019-05-29T05:05:27.350Z,96.10
2019-05-29T05:07:57.680Z,96.00
2019-05-29T05:10:40.923Z,95.90
2019-05-29T05:13:11.519Z,95.70
2019-05-29T05:15:42.677Z,95.60
2019-05-29T05:18:12.999Z,95.70
2019-05-29T05:20:43.328Z,95.60
2019-05-29T05:23:13.636Z,95.50
2019-05-29T05:25:44.080Z,95.20
2019-05-29T05:28:14.424Z,95.10
2019-05-29T05:30:44.803Z,95.00
2019-05-29T05:33:34.527Z,94.90
2019-05-29T05:36:04.850Z,94.80
2019-05-29T05:38:35.173Z,94.50
2019-05-29T05:41:05.521Z,94.60
2019-05-29T05:43:36.884Z,94.30
2019-05-29T05:46:07.297Z,94.40
2019-05-29T05:48:37.646Z,94.20
2019-05-29T05:51:08.017Z,94.30
2019-05-29T05:53:39.446Z,93.70
2019-05-29T05:56:10.026Z,93.40
2019-05-29T05:58:40.355Z,93.30
2019-05-29T06:01:10.706Z,93.30
2019-05-29T06:03:42.487Z,92.90
2019-05-29T06:06:13.127Z,92.10
2019-05-29T06:08:43.482Z,91.80
2019-05-29T06:11:13.843Z,91.10
2019-05-29T06:13:44.247Z,91.10
2019-05-29T06:16:14.612Z,90.90
2019-05-29T06:18:44.927Z,90.40
2019-05-29T06:21:15.281Z,90.50
2019-05-29T06:23:45.582Z,90.80
2019-05-29T06:26:15.942Z,90.90
2019-05-29T06:28:46.255Z,90.80
2019-05-29T06:31:16.606Z,90.70
2019-05-29T06:33:46.938Z,90.90
2019-05-29T06:36:17.275Z,90.80
2019-05-29T06:38:47.715Z,90.90
2019-05-29T06:41:18.062Z,91.30
2019-05-29T06:43:48.374Z,91.40
2019-05-29T06:46:18.738Z,91.30
2019-05-29T06:48:58.797Z,91.00
2019-05-29T06:51:21.084Z,90.80
2019-05-29T06:53:51.534Z,90.80
2019-05-29T06:56:21.869Z,90.60
2019-05-29T06:58:52.187Z,90.20
2019-05-29T07:01:22.649Z,90.10
2019-05-29T07:04:10.693Z,89.20
2019-05-29T07:06:24.942Z,88.30
2019-05-29T07:08:55.571Z,86.90
2019-05-29T07:11:25.916Z,86.70
2019-05-29T07:13:56.239Z,86.40
2019-05-29T07:16:43.105Z,86.70
2019-05-29T07:21:30.724Z,85.00
2019-05-29T07:24:02.196Z,84.50
2019-05-29T07:26:32.645Z,83.80
2019-05-29T07:29:08.347Z,83.90
2019-05-29T07:31:35.093Z,82.70
2019-05-29T07:34:05.514Z,81.50
2019-05-29T07:36:35.854Z,81.90
2019-05-29T07:39:07.451Z,82.60
2019-05-29T07:41:37.783Z,83.40
2019-05-29T07:44:08.134Z,83.80
2019-05-29T07:46:40.153Z,82.90
2019-05-29T07:49:10.476Z,81.70
2019-05-29T07:51:41.182Z,81.70
2019-05-29T07:54:12.774Z,80.90
2019-05-29T07:56:43.111Z,80.40
2019-05-29T07:59:13.414Z,77.20
2019-05-29T08:01:44.859Z,74.50
2019-05-29T08:04:16.127Z,73.60
2019-05-29T08:06:52.266Z,73.00
2019-05-29T08:09:18.453Z,72.30
2019-05-29T08:11:50.013Z,71.60
2019-05-29T08:14:21.667Z,71.80
2019-05-29T08:16:52.048Z,72.50
2019-05-29T08:19:22.436Z,72.70
2019-05-29T08:21:52.756Z,72.50
2019-05-29T08:24:24.827Z,71.40
2019-05-29T08:26:55.339Z,71.30
2019-05-29T08:29:25.819Z,70.60
2019-05-29T08:31:56.134Z,70.90
2019-05-29T08:34:26.497Z,69.40
2019-05-29T08:37:06.561Z,69.40
2019-05-29T08:39:36.120Z,69.70
2019-05-29T08:42:21.213Z,70.40
2019-05-29T08:44:32.806Z,70.90
2019-05-29T08:47:10.192Z,70.80
2019-05-29T08:49:35.127Z,71.00
2019-05-29T08:52:11.891Z,71.20
2019-05-29T08:54:38.588Z,69.10
2019-05-29T08:57:08.935Z,70.20
2019-05-29T08:59:39.241Z,70.10
2019-05-29T09:02:09.583Z,69.30
2019-05-29T09:04:39.902Z,69.30
2019-05-29T09:07:10.297Z,67.70
2019-05-29T09:09:40.644Z,67.80
2019-05-29T09:12:12.045Z,66.90
2019-05-29T09:14:42.453Z,67.00
2019-05-29T09:17:14.451Z,68.00
2019-05-29T09:19:44.731Z,66.60
2019-05-29T09:22:15.053Z,65.20
2019-05-29T09:24:45.397Z,65.00
2019-05-29T09:27:16.985Z,65.60
2019-05-29T09:29:47.359Z,63.70
2019-05-29T09:32:18.657Z,63.10
2019-05-29T09:34:49.645Z,63.90
2019-05-29T09:37:20.474Z,63.30
2019-05-29T09:39:50.888Z,63.20
2019-05-29T09:42:22.384Z,63.00
2019-05-29T09:44:53.611Z,62.00
2019-05-29T09:47:24.309Z,62.10
2019-05-29T09:49:54.766Z,58.80
2019-05-29T09:52:25.128Z,57.50
2019-05-29T09:54:56.147Z,58.20
2019-05-29T09:57:26.624Z,57.30
2019-05-29T09:59:58.462Z,56.80
2019-05-29T10:02:28.921Z,56.50
2019-05-29T10:05:00.630Z,55.30
2019-05-29T10:07:31.245Z,55.40
2019-05-29T10:10:03.160Z,56.50
2019-05-29T10:12:33.571Z,56.70
2019-05-29T10:15:04.404Z,57.20
2019-05-29T10:17:35.011Z,58.30
2019-05-29T10:20:05.553Z,58.60
2019-05-29T10:22:35.939Z,57.80
2019-05-29T10:25:06.732Z,57.50
2019-05-29T10:27:37.138Z,58.40
2019-05-29T10:30:09.932Z,59.10
2019-05-29T10:32:40.280Z,60.10
2019-05-29T10:35:11.210Z,59.50
2019-05-29T10:37:42.758Z,59.10
2019-05-29T10:40:13.928Z,60.00
2019-05-29T10:42:45.111Z,60.50
2019-05-29T10:45:15.957Z,61.30
2019-05-29T10:47:47.381Z,61.40
2019-05-29T10:50:17.982Z,62.30
2019-05-29T10:52:52.172Z,62.40
2019-05-29T10:55:23.888Z,62.40
2019-05-29T10:57:55.224Z,62.30
2019-05-29T11:00:26.355Z,61.90
2019-05-29T11:02:57.731Z,62.00
2019-05-29T11:05:28.617Z,61.00
2019-05-29T11:07:59.076Z,60.10
2019-05-29T11:10:29.469Z,59.10
2019-05-29T11:12:59.823Z,59.80
2019-05-29T11:15:30.170Z,59.60
2019-05-29T11:18:00.523Z,58.70
2019-05-29T11:20:30.919Z,58.50
2019-05-29T11:23:01.343Z,58.00
2019-05-29T11:25:31.768Z,54.90
2019-05-29T11:28:02.131Z,53.30
2019-05-29T11:30:33.355Z,52.70
2019-05-29T11:33:03.766Z,50.00
2019-05-29T11:35:34.887Z,49.60
2019-05-29T11:38:05.933Z,49.10
2019-05-29T11:40:36.782Z,47.60
2019-05-29T11:43:07.258Z,45.40
2019-05-29T11:45:37.720Z,44.50
2019-05-29T11:48:08.131Z,43.70
2019-05-29T11:50:39.242Z,43.70
2019-05-29T11:53:09.655Z,44.10
2019-05-29T11:55:39.982Z,44.00
2019-05-29T11:58:10.748Z,43.60
2019-05-29T12:00:41.044Z,43.90
2019-05-29T12:03:11.407Z,42.90
2019-05-29T12:05:41.723Z,43.30
2019-05-29T12:08:12.064Z,43.60
2019-05-29T12:10:42.386Z,42.90
2019-05-29T12:13:12.772Z,42.00
2019-05-29T12:15:43.210Z,40.10
2019-05-29T12:18:23.743Z,39.00
2019-05-29T12:20:45.818Z,38.80
2019-05-29T12:23:25.705Z,39.00
2019-05-29T12:25:48.144Z,39.10
2019-05-29T12:28:18.580Z,39.30
2019-05-29T12:30:48.912Z,39.50
2019-05-29T12:33:19.250Z,40.00
2019-05-29T12:35:50.390Z,39.40
2019-05-29T12:38:20.806Z,39.60
2019-05-29T12:40:51.136Z,39.40
2019-05-29T12:43:27.317Z,39.00
2019-05-29T12:45:53.594Z,38.50
2019-05-29T12:48:23.960Z,39.00
2019-05-29T12:50:55.955Z,38.50
2019-05-29T12:53:30.088Z,38.40
2019-05-29T12:55:58.365Z,36.30
2019-05-29T12:58:28.684Z,35.10
2019-05-29T13:01:00.534Z,34.00
2019-05-29T13:03:31.260Z,33.70
2019-05-29T13:06:02.477Z,33.50
2019-05-29T13:08:33.986Z,33.30
2019-05-29T13:11:05.082Z,33.00
2019-05-29T13:13:35.590Z,33.40
2019-05-29T13:16:05.920Z,34.30
2019-05-29T13:18:37.324Z,34.00
2019-05-29T13:21:07.679Z,33.60
2019-05-29T13:23:45.211Z,33.00
2019-05-29T13:26:09.937Z,34.40
2019-05-29T13:28:40.272Z,34.10
2019-05-29T13:31:10.579Z,33.50
2019-05-29T13:33:40.929Z,33.80
2019-05-29T13:36:11.247Z,35.00
2019-05-29T13:38:42.661Z,34.40
2019-05-29T13:41:12.973Z,33.30
2019-05-29T13:43:43.333Z,33.10
2019-05-29T13:46:13.636Z,33.00
2019-05-29T13:48:43.968Z,34.20
2019-05-29T13:51:14.259Z,35.60
2019-05-29T13:54:01.710Z,36.30
2019-05-29T13:56:17.574Z,37.00
2019-05-29T13:58:47.987Z,38.80
2019-05-29T14:01:18.302Z,37.60
2019-05-29T14:03:50.651Z,37.90
2019-05-29T14:06:20.579Z,37.00
2019-05-29T14:08:50.941Z,34.30
2019-05-29T14:11:21.253Z,32.90
2019-05-29T14:13:51.586Z,31.50
2019-05-29T14:16:21.901Z,30.90
2019-05-29T14:18:52.261Z,29.40
2019-05-29T14:21:22.564Z,28.10
2019-05-29T14:23:53.002Z,27.90
2019-05-29T14:26:25.970Z,27.30
2019-05-29T14:28:56.833Z,26.80
2019-05-29T14:31:27.324Z,26.80
2019-05-29T14:33:58.062Z,26.90
2019-05-29T14:36:28.386Z,27.00
2019-05-29T14:38:58.727Z,26.00
2019-05-29T14:41:29.123Z,25.50
2019-05-29T14:43:59.557Z,25.30
2019-05-29T14:46:29.900Z,25.90
2019-05-29T14:49:00.194Z,26.00
2019-05-29T14:51:30.524Z,26.70
2019-05-29T14:54:00.882Z,28.00
2019-05-29T14:56:31.258Z,28.40
2019-05-29T14:59:03.020Z,29.10
2019-05-29T15:01:34.621Z,29.20
2019-05-29T15:04:05.665Z,29.60
2019-05-29T15:06:36.478Z,30.20
2019-05-29T15:09:07.818Z,31.70
2019-05-29T15:11:38.132Z,32.90
2019-05-29T15:14:08.472Z,33.70
2019-05-29T15:16:38.907Z,34.40
2019-05-29T15:19:09.325Z,34.40
2019-05-29T15:21:39.659Z,31.90
2019-05-29T15:24:09.987Z,29.40
2019-05-29T15:26:40.322Z,28.40
2019-05-29T15:29:14.304Z,28.80
2019-05-29T15:31:43.984Z,27.70
2019-05-29T15:34:14.516Z,27.20
2019-05-29T15:36:44.896Z,26.60
2019-05-29T15:39:15.259Z,26.20
2019-05-29T15:41:45.580Z,25.30
2019-05-29T15:44:17.115Z,25.30
2019-05-29T15:46:47.612Z,25.00
2019-05-29T15:49:18.047Z,24.90
2019-05-29T15:51:48.366Z,25.00
2019-05-29T15:54:18.703Z,25.30
2019-05-29T15:56:49.070Z,25.90
2019-05-29T15:59:19.432Z,25.60
2019-05-29T16:01:49.779Z,25.70
2019-05-29T16:04:20.097Z,26.10
2019-05-29T16:06:50.427Z,25.40
2019-05-29T16:09:20.729Z,25.70
2019-05-29T16:11:51.082Z,25.60
2019-05-29T16:14:21.394Z,25.10
2019-05-29T16:16:52.824Z,24.50
2019-05-29T16:19:23.142Z,23.50
2019-05-29T16:21:53.483Z,23.10
2019-05-29T16:24:23.797Z,23.20
2019-05-29T16:27:07.928Z,23.20
2019-05-29T16:29:26.125Z,23.40
2019-05-29T16:31:56.494Z,22.70
2019-05-29T16:34:26.975Z,22.90
2019-05-29T16:36:57.322Z,22.80
2019-05-29T16:39:28.008Z,22.90
2019-05-29T16:41:58.344Z,22.50
2019-05-29T16:44:29.589Z,22.10
2019-05-29T16:47:00.696Z,22.00
2019-05-29T16:49:32.810Z,22.60
2019-05-29T16:52:03.188Z,23.40
2019-05-29T16:54:33.500Z,24.20
2019-05-29T16:57:03.842Z,24.60
2019-05-29T16:59:34.186Z,24.30
2019-05-29T17:02:04.516Z,24.50
2019-05-29T17:04:35.899Z,25.30
2019-05-29T17:07:07.156Z,26.50
2019-05-29T17:09:37.480Z,27.60
2019-05-29T17:12:07.823Z,29.00
2019-05-29T17:14:38.204Z,30.60
2019-05-29T17:17:08.829Z,32.10
2019-05-29T17:19:39.268Z,33.80
2019-05-29T17:22:09.648Z,34.90
2019-05-29T17:24:39.991Z,36.40
2019-05-29T17:27:10.377Z,37.60
2019-05-29T17:29:40.862Z,38.20
2019-05-29T17:32:11.252Z,38.70
2019-05-29T17:34:41.723Z,39.30
2019-05-29T17:37:12.065Z,39.70
2019-05-29T17:39:42.447Z,39.80
2019-05-29T17:42:12.781Z,40.80
2019-05-29T17:44:43.179Z,40.00
2019-05-29T17:47:13.502Z,39.80
2019-05-29T17:49:43.839Z,39.80
2019-05-29T17:52:15.748Z,39.90
2019-05-29T17:54:46.072Z,40.70
2019-05-29T17:57:16.730Z,41.20
2019-05-29T17:59:48.446Z,41.80
2019-05-29T18:02:20.098Z,42.70
2019-05-29T18:04:51.734Z,43.30
2019-05-29T18:07:22.666Z,44.10
2019-05-29T18:09:53.044Z,44.70
2019-05-29T18:12:23.575Z,45.40
2019-05-29T18:14:54.660Z,45.60
2019-05-29T18:17:25.475Z,45.90
2019-05-29T18:19:55.953Z,46.30
2019-05-29T18:22:26.356Z,46.40
2019-05-29T18:24:56.719Z,46.30
2019-05-29T18:27:28.284Z,47.10
2019-05-29T18:29:58.592Z,47.10
2019-05-29T18:32:29.197Z,46.50
2019-05-29T18:34:59.663Z,46.30
2019-05-29T18:37:29.963Z,45.40
2019-05-29T18:40:00.312Z,45.00
2019-05-29T18:42:30.753Z,45.10
2019-05-29T18:45:01.103Z,45.70
2019-05-29T18:47:31.509Z,46.20
2019-05-29T18:50:01.834Z,46.30
2019-05-29T18:52:33.339Z,46.30
2019-05-29T18:55:03.746Z,47.00
2019-05-29T18:57:36.843Z,47.40
2019-05-29T19:00:07.623Z,47.80
2019-05-29T19:02:38.022Z,48.10
2019-05-29T19:05:09.701Z,48.80
2019-05-29T19:07:40.265Z,49.10
2019-05-29T19:10:11.434Z,49.80
2019-05-29T19:12:41.871Z,50.60
2019-05-29T19:15:14.810Z,50.70
2019-05-29T19:17:45.273Z,51.80
2019-05-29T19:20:15.675Z,52.20
2019-05-29T19:22:46.068Z,52.80
2019-05-29T19:25:16.419Z,54.10
2019-05-29T19:27:46.810Z,54.70
2019-05-29T19:30:17.567Z,55.40
2019-05-29T19:32:47.991Z,55.90
2019-05-29T19:35:20.071Z,56.20
2019-05-29T19:37:50.495Z,57.10
2019-05-29T19:40:21.193Z,57.30
2019-05-29T19:42:54.583Z,57.90
2019-05-29T19:45:24.627Z,58.30
2019-05-29T19:47:55.264Z,59.30
2019-05-29T19:50:26.673Z,61.20
2019-05-29T19:52:57.185Z,63.80
2019-05-29T19:55:31.736Z,64.80
2019-05-29T19:57:59.899Z,67.50
2019-05-29T20:00:30.272Z,68.60
2019-05-29T20:03:00.595Z,69.50
2019-05-29T20:05:30.903Z,70.40
2019-05-29T20:08:01.447Z,71.00
2019-05-29T20:10:31.743Z,73.00
2019-05-29T20:13:03.175Z,74.20
2019-05-29T20:15:33.946Z,74.80
2019-05-29T20:18:04.443Z,75.10
2019-05-29T20:20:34.727Z,75.30
2019-05-29T20:23:05.117Z,75.50
2019-05-29T20:25:35.420Z,75.80
2019-05-29T20:28:06.837Z,76.10
2019-05-29T20:30:38.600Z,76.30
2019-05-29T20:33:11.019Z,76.40
2019-05-29T20:35:41.311Z,76.50
2019-05-29T20:38:11.682Z,76.30
2019-05-29T20:40:41.970Z,75.70
2019-05-29T20:43:12.322Z,75.80
2019-05-29T20:45:44.931Z,76.30
2019-05-29T20:48:16.180Z,76.80
2019-05-29T20:50:46.609Z,77.20
2019-05-29T20:53:16.961Z,77.20
2019-05-29T20:55:47.349Z,77.50
2019-05-29T20:58:24.407Z,78.80
2019-05-29T21:00:49.625Z,79.10
2019-05-29T21:03:19.978Z,80.40
2019-05-29T21:05:50.341Z,81.10
2019-05-29T21:08:21.372Z,81.90
2019-05-29T21:10:51.743Z,82.40
2019-05-29T21:13:22.392Z,82.10
2019-05-29T21:15:52.763Z,83.60
2019-05-29T21:18:23.115Z,85.90
2019-05-29T21:20:53.459Z,85.30
2019-05-29T21:23:23.786Z,85.50
2019-05-29T21:25:54.151Z,86.10
2019-05-29T21:28:37.228Z,86.20
2019-05-29T21:30:56.501Z,86.90
2019-05-29T21:33:26.809Z,86.90
2019-05-29T21:35:57.171Z,87.50
2019-05-29T21:38:27.496Z,87.60
2019-05-29T21:40:57.828Z,88.50
2019-05-29T21:43:28.161Z,88.30
2019-05-29T21:45:58.582Z,89.40
2019-05-29T21:48:29.973Z,90.30
2019-05-29T21:51:00.436Z,90.70
2019-05-29T21:53:30.788Z,90.40
2019-05-29T21:56:01.149Z,90.60
2019-05-29T21:58:31.481Z,90.60
2019-05-29T22:01:01.931Z,90.80
2019-05-29T22:03:32.303Z,92.00
2019-05-29T22:06:02.683Z,91.80
2019-05-29T22:08:33.014Z,92.30
2019-05-29T22:11:03.480Z,93.20
2019-05-29T22:13:33.797Z,92.70
2019-05-29T22:16:04.239Z,92.70
2019-05-29T22:18:34.645Z,93.30
2019-05-29T22:21:05.004Z,93.50
2019-05-29T22:23:35.318Z,93.60
2019-05-29T22:26:05.776Z,94.00
2019-05-29T22:28:36.162Z,94.20
2019-05-29T22:31:06.555Z,94.30
2019-05-29T22:33:36.924Z,94.30
2019-05-29T22:36:07.251Z,94.90
2019-05-29T22:38:37.558Z,95.10
2019-05-29T22:41:07.902Z,95.50
2019-05-29T22:43:38.210Z,95.00
2019-05-29T22:46:08.539Z,95.30
2019-05-29T22:48:38.876Z,95.10
2019-05-29T22:51:09.225Z,94.90
2019-05-29T22:53:39.542Z,94.70
2019-05-29T22:56:09.915Z,94.50
2019-05-29T22:58:40.248Z,94.60
2019-05-29T23:01:10.602Z,94.70
2019-05-29T23:03:40.983Z,94.60
2019-05-29T23:06:11.358Z,94.90
2019-05-29T23:08:41.666Z,94.90
2019-05-29T23:11:12.039Z,94.80
2019-05-29T23:13:42.475Z,95.00
2019-05-29T23:16:12.833Z,95.00
2019-05-29T23:18:43.149Z,95.60
2019-05-29T23:21:13.498Z,96.30
2019-05-29T23:23:43.812Z,96.80
2019-05-29T23:26:15.247Z,96.70
2019-05-29T23:28:45.609Z,96.70
2019-05-29T23:31:16.018Z,96.50
2019-05-29T23:33:46.344Z,96.10
2019-05-29T23:36:16.679Z,95.80
2019-05-29T23:38:47.049Z,96.20
2019-05-29T23:41:17.395Z,95.90
2019-05-29T23:43:47.705Z,96.10
2019-05-29T23:46:18.353Z,95.90
2019-05-29T23:48:48.707Z,96.20
2019-05-29T23:51:19.079Z,96.10
2019-05-29T23:53:49.459Z,96.00
2019-05-29T23:56:20.349Z,96.00
2019-05-29T23:58:50.811Z,96.20
